createdAt,value
2019-05-02T00:00:01.878Z,1003.03
2019-05-02T00:01:01.163Z,1003.00
2019-05-02T00:02:01.133Z,1002.96
2019-05-02T00:03:04.391Z,1002.98
2019-05-02T00:04:01.089Z,1002.98
2019-05-02T00:05:01.484Z,1002.97
2019-05-02T00:06:02.878Z,1002.94
2019-05-02T00:07:01.026Z,1002.92
2019-05-02T00:08:01.038Z,1002.94
2019-05-02T00:09:04.060Z,1002.88
2019-05-02T00:10:00.978Z,1002.85
2019-05-02T00:11:00.945Z,1002.89
2019-05-02T00:12:00.921Z,1002.88
2019-05-02T00:13:01.006Z,1002.81
2019-05-02T00:14:00.881Z,1002.86
2019-05-02T00:15:02.124Z,1002.81
2019-05-02T00:16:01.088Z,1002.82
2019-05-02T00:17:00.922Z,1002.76
2019-05-02T00:19:00.777Z,1002.76
2019-05-02T00:20:00.878Z,1002.76
2019-05-02T00:21:01.372Z,1002.75
2019-05-02T00:22:00.711Z,1002.75
2019-05-02T00:23:00.988Z,1002.71
2019-05-02T00:24:03.023Z,1002.77
2019-05-02T00:25:00.746Z,1002.71
2019-05-02T00:26:00.637Z,1002.69
2019-05-02T00:27:01.279Z,1002.75
2019-05-02T00:28:00.585Z,1002.77
2019-05-02T00:29:00.868Z,1002.71
2019-05-02T00:30:00.535Z,1002.70
2019-05-02T00:31:00.521Z,1002.69
2019-05-02T00:32:00.490Z,1002.70
2019-05-02T00:34:00.452Z,1002.78
2019-05-02T00:35:00.730Z,1002.70
2019-05-02T00:36:00.407Z,1002.71
2019-05-02T00:37:00.385Z,1002.72
2019-05-02T00:38:02.440Z,1002.71
2019-05-02T00:39:00.386Z,1002.69
2019-05-02T00:40:00.318Z,1002.74
2019-05-02T00:41:02.256Z,1002.62
2019-05-02T00:42:12.053Z,1002.64
2019-05-02T00:43:00.253Z,1002.65
2019-05-02T00:44:00.244Z,1002.69
2019-05-02T00:45:00.318Z,1002.62
2019-05-02T00:46:00.969Z,1002.63
2019-05-02T00:47:00.470Z,1002.61
2019-05-02T00:48:00.145Z,1002.67
2019-05-02T00:49:01.888Z,1002.62
2019-05-02T00:50:00.105Z,1002.54
2019-05-02T00:52:01.414Z,1002.60
2019-05-02T00:53:00.294Z,1002.58
2019-05-02T00:54:00.028Z,1002.60
2019-05-02T00:54:59.998Z,1002.55
2019-05-02T00:55:59.974Z,1002.63
2019-05-02T00:56:59.973Z,1002.59
2019-05-02T00:57:59.932Z,1002.55
2019-05-02T00:59:02.404Z,1002.48
2019-05-02T00:59:59.890Z,1002.54
2019-05-02T01:00:59.976Z,1002.48
2019-05-02T01:02:04.810Z,1002.51
2019-05-02T01:02:59.832Z,1002.45
2019-05-02T01:03:59.803Z,1002.41
2019-05-02T01:05:03.252Z,1002.42
2019-05-02T01:06:00.012Z,1002.43
2019-05-02T01:06:59.740Z,1002.38
2019-05-02T01:08:01.017Z,1002.48
2019-05-02T01:08:59.721Z,1002.40
2019-05-02T01:09:59.824Z,1002.39
2019-05-02T01:10:59.759Z,1002.34
2019-05-02T01:12:03.193Z,1002.33
2019-05-02T01:12:59.617Z,1002.41
2019-05-02T01:13:59.594Z,1002.38
2019-05-02T01:15:03.371Z,1002.37
2019-05-02T01:15:59.695Z,1002.32
2019-05-02T01:16:59.527Z,1002.35
2019-05-02T01:18:01.084Z,1002.37
2019-05-02T01:18:59.793Z,1002.38
2019-05-02T01:19:59.460Z,1002.33
2019-05-02T01:21:02.709Z,1002.36
2019-05-02T01:21:59.415Z,1002.37
2019-05-02T01:22:59.510Z,1002.38
2019-05-02T01:24:03.144Z,1002.36
2019-05-02T01:24:59.350Z,1002.36
2019-05-02T01:25:59.638Z,1002.32
2019-05-02T01:26:59.800Z,1002.32
2019-05-02T01:27:59.399Z,1002.29
2019-05-02T01:28:59.264Z,1002.31
2019-05-02T01:30:01.542Z,1002.29
2019-05-02T01:30:59.424Z,1002.32
2019-05-02T01:33:01.473Z,1002.34
2019-05-02T01:33:59.462Z,1002.29
2019-05-02T01:34:59.135Z,1002.28
2019-05-02T01:36:59.110Z,1002.28
2019-05-02T01:39:02.934Z,1002.32
2019-05-02T01:39:59.189Z,1002.28
2019-05-02T01:40:59.257Z,1002.27
2019-05-02T01:41:59.882Z,1002.34
2019-05-02T01:44:00.073Z,1002.26
2019-05-02T01:44:58.921Z,1002.25
2019-05-02T01:45:59.107Z,1002.26
2019-05-02T01:47:00.054Z,1002.18
2019-05-02T01:47:59.158Z,1002.22
2019-05-02T01:48:58.850Z,1002.21
2019-05-02T01:49:59.260Z,1002.21
2019-05-02T01:50:58.802Z,1002.22
2019-05-02T01:52:00.022Z,1002.15
2019-05-02T01:53:00.202Z,1002.19
2019-05-02T01:53:59.029Z,1002.17
2019-05-02T01:54:58.767Z,1002.18
2019-05-02T01:55:59.352Z,1002.18
2019-05-02T01:56:58.781Z,1002.17
2019-05-02T01:57:58.640Z,1002.09
2019-05-02T01:58:58.941Z,1002.11
2019-05-02T01:59:58.856Z,1002.14
2019-05-02T02:00:58.577Z,1002.12
2019-05-02T02:01:59.185Z,1002.06
2019-05-02T02:02:58.538Z,1002.06
2019-05-02T02:03:58.522Z,1002.10
2019-05-02T02:04:58.496Z,1002.05
2019-05-02T02:06:02.826Z,1002.07
2019-05-02T02:06:58.454Z,1002.01
2019-05-02T02:07:58.433Z,1001.96
2019-05-02T02:08:58.407Z,1001.94
2019-05-02T02:09:58.388Z,1001.94
2019-05-02T02:10:58.442Z,1001.99
2019-05-02T02:11:58.646Z,1001.98
2019-05-02T02:13:04.618Z,1001.94
2019-05-02T02:13:58.306Z,1001.90
2019-05-02T02:14:58.290Z,1001.89
2019-05-02T02:16:00.265Z,1001.83
2019-05-02T02:16:58.288Z,1001.85
2019-05-02T02:17:58.554Z,1001.84
2019-05-02T02:18:59.129Z,1001.82
2019-05-02T02:19:58.173Z,1001.84
2019-05-02T02:20:58.160Z,1001.81
2019-05-02T02:22:02.938Z,1001.74
2019-05-02T02:22:58.112Z,1001.78
2019-05-02T02:23:58.333Z,1001.73
2019-05-02T02:25:00.959Z,1001.73
2019-05-02T02:25:58.066Z,1001.67
2019-05-02T02:26:58.045Z,1001.68
2019-05-02T02:27:59.678Z,1001.68
2019-05-02T02:28:58.322Z,1001.70
2019-05-02T02:29:58.017Z,1001.72
2019-05-02T02:31:04.925Z,1001.62
2019-05-02T02:31:57.910Z,1001.64
2019-05-02T02:33:00.572Z,1001.64
2019-05-02T02:33:57.878Z,1001.60
2019-05-02T02:35:57.827Z,1001.59
2019-05-02T02:36:57.807Z,1001.60
2019-05-02T02:38:57.776Z,1001.57
2019-05-02T02:39:57.747Z,1001.60
2019-05-02T02:41:57.702Z,1001.50
2019-05-02T02:42:57.834Z,1001.55
2019-05-02T02:44:00.557Z,1001.55
2019-05-02T02:44:57.937Z,1001.52
2019-05-02T02:45:59.740Z,1001.48
2019-05-02T02:46:57.593Z,1001.50
2019-05-02T02:48:00.036Z,1001.45
2019-05-02T02:48:57.555Z,1001.42
2019-05-02T02:50:02.280Z,1001.47
2019-05-02T02:50:57.519Z,1001.54
2019-05-02T02:52:04.258Z,1001.43
2019-05-02T02:52:57.460Z,1001.37
2019-05-02T02:54:03.896Z,1001.40
2019-05-02T02:54:57.616Z,1001.38
2019-05-02T02:56:57.386Z,1001.39
2019-05-02T02:57:58.322Z,1001.32
2019-05-02T02:58:57.630Z,1001.31
2019-05-02T03:00:06.667Z,1001.34
2019-05-02T03:00:57.287Z,1001.30
2019-05-02T03:02:09.161Z,1001.27
2019-05-02T03:02:57.251Z,1001.27
2019-05-02T03:04:01.881Z,1001.28
2019-05-02T03:04:57.201Z,1001.28
2019-05-02T03:06:57.160Z,1001.21
2019-05-02T03:07:59.723Z,1001.21
2019-05-02T03:08:57.111Z,1001.21
2019-05-02T03:09:59.782Z,1001.20
2019-05-02T03:12:02.082Z,1001.21
2019-05-02T03:12:57.326Z,1001.22
2019-05-02T03:14:06.073Z,1001.21
2019-05-02T03:14:56.983Z,1001.23
2019-05-02T03:16:00.344Z,1001.25
2019-05-02T03:16:57.005Z,1001.23
2019-05-02T03:17:59.871Z,1001.22
2019-05-02T03:18:57.178Z,1001.15
2019-05-02T03:20:01.577Z,1001.16
2019-05-02T03:20:56.894Z,1001.10
2019-05-02T03:22:04.323Z,1001.12
2019-05-02T03:22:56.820Z,1001.11
2019-05-02T03:24:03.304Z,1001.12
2019-05-02T03:24:56.774Z,1001.11
2019-05-02T03:25:56.749Z,1001.09
2019-05-02T03:26:58.397Z,1001.03
2019-05-02T03:27:56.702Z,1001.09
2019-05-02T03:28:58.679Z,1001.07
2019-05-02T03:29:56.661Z,1001.02
2019-05-02T03:30:56.952Z,1001.04
2019-05-02T03:32:11.481Z,1001.04
2019-05-02T03:33:05.849Z,1000.98
2019-05-02T03:34:00.490Z,1001.04
2019-05-02T03:34:56.757Z,1000.97
2019-05-02T03:35:56.534Z,1001.01
2019-05-02T03:37:03.175Z,1000.97
2019-05-02T03:37:56.516Z,1000.99
2019-05-02T03:38:56.487Z,1000.99
2019-05-02T03:39:58.338Z,1000.96
2019-05-02T03:40:56.434Z,1000.97
2019-05-02T03:42:02.852Z,1001.00
2019-05-02T03:42:56.692Z,1000.99
2019-05-02T03:44:10.662Z,1000.96
2019-05-02T03:45:03.852Z,1000.96
2019-05-02T03:45:56.319Z,1000.97
2019-05-02T03:47:02.033Z,1000.93
2019-05-02T03:47:56.276Z,1000.93
2019-05-02T03:49:06.231Z,1001.00
2019-05-02T03:50:56.409Z,1000.88
2019-05-02T03:52:56.189Z,1000.86
2019-05-02T03:54:05.660Z,1000.88
2019-05-02T03:56:56.126Z,1000.86
2019-05-02T03:57:56.057Z,1000.85
2019-05-02T03:58:58.220Z,1000.82
2019-05-02T03:59:56.031Z,1000.85
2019-05-02T04:01:01.694Z,1000.80
2019-05-02T04:01:56.025Z,1000.80
2019-05-02T04:03:00.311Z,1000.77
2019-05-02T04:03:56.023Z,1000.78
2019-05-02T04:05:00.715Z,1000.76
2019-05-02T04:05:55.883Z,1000.74
2019-05-02T04:07:01.326Z,1000.73
2019-05-02T04:07:55.844Z,1000.70
2019-05-02T04:08:59.842Z,1000.77
2019-05-02T04:09:56.098Z,1000.79
2019-05-02T04:10:59.401Z,1000.78
2019-05-02T04:11:55.787Z,1000.80
2019-05-02T04:13:55.722Z,1000.77
2019-05-02T04:14:57.180Z,1000.79
2019-05-02T04:15:55.673Z,1000.75
2019-05-02T04:16:57.368Z,1000.79
2019-05-02T04:17:55.629Z,1000.74
2019-05-02T04:18:58.037Z,1000.77
2019-05-02T04:19:55.625Z,1000.75
2019-05-02T04:20:55.563Z,1000.73
2019-05-02T04:22:01.902Z,1000.74
2019-05-02T04:22:55.564Z,1000.68
2019-05-02T04:24:07.670Z,1000.71
2019-05-02T04:24:56.774Z,1000.72
2019-05-02T04:25:55.477Z,1000.69
2019-05-02T04:26:56.563Z,1000.73
2019-05-02T04:27:55.939Z,1000.75
2019-05-02T04:28:55.510Z,1000.71
2019-05-02T04:29:55.513Z,1000.69
2019-05-02T04:30:55.760Z,1000.74
2019-05-02T04:31:55.330Z,1000.73
2019-05-02T04:32:56.166Z,1000.73
2019-05-02T04:33:55.283Z,1000.72
2019-05-02T04:34:57.998Z,1000.73
2019-05-02T04:35:59.226Z,1000.76
2019-05-02T04:37:03.503Z,1000.68
2019-05-02T04:37:57.538Z,1000.71
2019-05-02T04:39:59.126Z,1000.73
2019-05-02T04:40:55.136Z,1000.73
2019-05-02T04:41:55.126Z,1000.75
2019-05-02T04:43:02.069Z,1000.72
2019-05-02T04:43:58.032Z,1000.68
2019-05-02T04:45:13.717Z,1000.75
2019-05-02T04:45:57.463Z,1000.68
2019-05-02T04:48:03.050Z,1000.74
2019-05-02T04:48:54.976Z,1000.65
2019-05-02T04:49:54.960Z,1000.71
2019-05-02T04:51:02.059Z,1000.66
2019-05-02T04:52:01.484Z,1000.69
2019-05-02T04:52:54.890Z,1000.68
2019-05-02T04:53:54.862Z,1000.67
2019-05-02T04:55:08.201Z,1000.64
2019-05-02T04:56:01.639Z,1000.69
2019-05-02T04:56:55.447Z,1000.61
2019-05-02T04:57:54.810Z,1000.66
2019-05-02T04:58:54.756Z,1000.71
2019-05-02T05:00:05.073Z,1000.68
2019-05-02T05:01:01.016Z,1000.64
2019-05-02T05:01:58.508Z,1000.66
2019-05-02T05:02:54.680Z,1000.67
2019-05-02T05:03:58.602Z,1000.68
2019-05-02T05:06:01.604Z,1000.60
2019-05-02T05:07:00.098Z,1000.60
2019-05-02T05:08:54.846Z,1000.68
2019-05-02T05:09:58.232Z,1000.65
2019-05-02T05:10:54.512Z,1000.58
2019-05-02T05:11:59.025Z,1000.65
2019-05-02T05:12:54.474Z,1000.63
2019-05-02T05:13:57.574Z,1000.64
2019-05-02T05:14:55.083Z,1000.65
2019-05-02T05:15:54.395Z,1000.68
2019-05-02T05:16:56.116Z,1000.61
2019-05-02T05:18:54.349Z,1000.63
2019-05-02T05:19:54.418Z,1000.66
2019-05-02T05:21:58.870Z,1000.71
2019-05-02T05:22:54.345Z,1000.68
2019-05-02T05:23:59.299Z,1000.69
2019-05-02T05:24:54.272Z,1000.74
2019-05-02T05:25:55.804Z,1000.73
2019-05-02T05:26:54.192Z,1000.78
2019-05-02T05:27:58.770Z,1000.71
2019-05-02T05:28:54.463Z,1000.74
2019-05-02T05:29:59.483Z,1000.73
2019-05-02T05:30:54.166Z,1000.75
2019-05-02T05:31:55.169Z,1000.76
2019-05-02T05:32:54.055Z,1000.78
2019-05-02T05:33:54.043Z,1000.75
2019-05-02T05:34:54.680Z,1000.77
2019-05-02T05:35:54.726Z,1000.76
2019-05-02T05:37:54.463Z,1000.79
2019-05-02T05:39:54.300Z,1000.83
2019-05-02T05:40:54.223Z,1000.77
2019-05-02T05:43:54.180Z,1000.77
2019-05-02T05:44:53.816Z,1000.78
2019-05-02T05:46:01.319Z,1000.78
2019-05-02T05:46:53.770Z,1000.82
2019-05-02T05:48:53.748Z,1000.73
2019-05-02T05:49:57.650Z,1000.75
2019-05-02T05:50:53.986Z,1000.84
2019-05-02T05:51:54.434Z,1000.83
2019-05-02T05:52:53.661Z,1000.75
2019-05-02T05:53:58.983Z,1000.74
2019-05-02T05:54:53.609Z,1000.73
2019-05-02T05:55:58.349Z,1000.74
2019-05-02T05:56:53.967Z,1000.75
2019-05-02T05:57:59.607Z,1000.75
2019-05-02T05:58:53.525Z,1000.80
2019-05-02T05:59:53.507Z,1000.77
2019-05-02T06:00:55.623Z,1000.78
2019-05-02T06:01:53.470Z,1000.81
2019-05-02T06:02:56.547Z,1000.78
2019-05-02T06:03:53.424Z,1000.75
2019-05-02T06:04:55.215Z,1000.75
2019-05-02T06:05:53.410Z,1000.74
2019-05-02T06:06:54.077Z,1000.75
2019-05-02T06:07:53.423Z,1000.71
2019-05-02T06:09:53.294Z,1000.74
2019-05-02T06:10:53.563Z,1000.73
2019-05-02T06:11:55.420Z,1000.80
2019-05-02T06:12:53.378Z,1000.71
2019-05-02T06:13:53.216Z,1000.73
2019-05-02T06:14:56.408Z,1000.79
2019-05-02T06:16:02.156Z,1000.77
2019-05-02T06:16:53.321Z,1000.79
2019-05-02T06:17:53.401Z,1000.77
2019-05-02T06:18:53.108Z,1000.77
2019-05-02T06:19:55.310Z,1000.85
2019-05-02T06:20:53.076Z,1000.79
2019-05-02T06:21:53.055Z,1000.77
2019-05-02T06:22:55.030Z,1000.75
2019-05-02T06:23:53.025Z,1000.76
2019-05-02T06:24:52.988Z,1000.76
2019-05-02T06:25:53.013Z,1000.69
2019-05-02T06:26:52.943Z,1000.75
2019-05-02T06:28:53.211Z,1000.73
2019-05-02T06:29:56.178Z,1000.75
2019-05-02T06:30:52.981Z,1000.74
2019-05-02T06:31:52.963Z,1000.75
2019-05-02T06:33:52.921Z,1000.73
2019-05-02T06:34:53.277Z,1000.73
2019-05-02T06:37:52.720Z,1000.79
2019-05-02T06:38:56.560Z,1000.70
2019-05-02T06:39:52.725Z,1000.70
2019-05-02T06:40:52.961Z,1000.69
2019-05-02T06:41:57.511Z,1000.78
2019-05-02T06:42:52.631Z,1000.68
2019-05-02T06:43:52.885Z,1000.68
2019-05-02T06:45:52.545Z,1000.70
2019-05-02T06:46:52.547Z,1000.70
2019-05-02T06:47:52.762Z,1000.64
2019-05-02T06:48:53.671Z,1000.74
2019-05-02T06:49:56.085Z,1000.64
2019-05-02T06:51:56.256Z,1000.61
2019-05-02T06:52:52.403Z,1000.65
2019-05-02T06:53:52.399Z,1000.62
2019-05-02T06:54:54.109Z,1000.59
2019-05-02T06:55:52.347Z,1000.63
2019-05-02T06:56:52.338Z,1000.63
2019-05-02T06:57:57.118Z,1000.68
2019-05-02T06:58:52.312Z,1000.67
2019-05-02T06:59:54.651Z,1000.62
2019-05-02T07:00:58.152Z,1000.69
2019-05-02T07:01:56.912Z,1000.66
2019-05-02T07:02:52.220Z,1000.65
2019-05-02T07:04:54.801Z,1000.62
2019-05-02T07:05:52.355Z,1000.67
2019-05-02T07:06:58.780Z,1000.59
2019-05-02T07:07:52.637Z,1000.62
2019-05-02T07:08:52.121Z,1000.64
2019-05-02T07:09:52.071Z,1000.63
2019-05-02T07:10:55.950Z,1000.58
2019-05-02T07:11:57.323Z,1000.59
2019-05-02T07:13:02.237Z,1000.56
2019-05-02T07:13:52.017Z,1000.56
2019-05-02T07:14:56.095Z,1000.60
2019-05-02T07:16:54.422Z,1000.59
2019-05-02T07:17:51.928Z,1000.57
2019-05-02T07:19:51.896Z,1000.55
2019-05-02T07:21:53.123Z,1000.57
2019-05-02T07:22:51.815Z,1000.60
2019-05-02T07:23:53.747Z,1000.57
2019-05-02T07:24:51.769Z,1000.58
2019-05-02T07:25:51.772Z,1000.53
2019-05-02T07:26:52.102Z,1000.58
2019-05-02T07:28:52.007Z,1000.69
2019-05-02T07:29:52.197Z,1000.63
2019-05-02T07:30:54.480Z,1000.63
2019-05-02T07:31:53.523Z,1000.60
2019-05-02T07:32:51.630Z,1000.54
2019-05-02T07:33:51.828Z,1000.55
2019-05-02T07:34:51.940Z,1000.55
2019-05-02T07:35:55.278Z,1000.59
2019-05-02T07:36:52.626Z,1000.59
2019-05-02T07:37:52.019Z,1000.50
2019-05-02T07:38:51.524Z,1000.52
2019-05-02T07:39:51.487Z,1000.53
2019-05-02T07:40:53.114Z,1000.53
2019-05-02T07:41:51.465Z,1000.65
2019-05-02T07:42:51.421Z,1000.57
2019-05-02T07:43:52.122Z,1000.61
2019-05-02T07:44:51.438Z,1000.67
2019-05-02T07:45:51.366Z,1000.65
2019-05-02T07:46:52.369Z,1000.58
2019-05-02T07:47:51.362Z,1000.60
2019-05-02T07:48:54.506Z,1000.62
2019-05-02T07:49:51.709Z,1000.59
2019-05-02T07:50:51.607Z,1000.63
2019-05-02T07:53:51.216Z,1000.48
2019-05-02T07:54:51.392Z,1000.49
2019-05-02T07:55:51.179Z,1000.51
2019-05-02T07:56:53.345Z,1000.47
2019-05-02T07:57:51.134Z,1000.48
2019-05-02T07:58:51.413Z,1000.50
2019-05-02T08:00:51.077Z,1000.52
2019-05-02T08:01:51.075Z,1000.56
2019-05-02T08:02:51.236Z,1000.49
2019-05-02T08:03:51.015Z,1000.48
2019-05-02T08:04:52.585Z,1000.51
2019-05-02T08:05:54.484Z,1000.49
2019-05-02T08:06:50.962Z,1000.42
2019-05-02T08:07:53.417Z,1000.51
2019-05-02T08:08:51.127Z,1000.43
2019-05-02T08:09:51.505Z,1000.38
2019-05-02T08:10:53.349Z,1000.35
2019-05-02T08:11:50.862Z,1000.37
2019-05-02T08:12:51.311Z,1000.28
2019-05-02T08:13:55.641Z,1000.30
2019-05-02T08:14:51.097Z,1000.30
2019-05-02T08:15:52.378Z,1000.34
2019-05-02T08:17:53.697Z,1000.37
2019-05-02T08:18:50.999Z,1000.34
2019-05-02T08:19:50.857Z,1000.39
2019-05-02T08:20:55.467Z,1000.43
2019-05-02T08:22:50.835Z,1000.42
2019-05-02T08:24:51.915Z,1000.35
2019-05-02T08:25:50.702Z,1000.37
2019-05-02T08:26:53.529Z,1000.36
2019-05-02T08:27:50.555Z,1000.39
2019-05-02T08:28:51.973Z,1000.43
2019-05-02T08:29:51.298Z,1000.40
2019-05-02T08:30:50.865Z,1000.37
2019-05-02T08:31:54.038Z,1000.38
2019-05-02T08:32:50.508Z,1000.38
2019-05-02T08:33:50.445Z,1000.41
2019-05-02T08:34:51.970Z,1000.43
2019-05-02T08:35:50.596Z,1000.45
2019-05-02T08:36:50.392Z,1000.42
2019-05-02T08:37:50.724Z,1000.43
2019-05-02T08:38:53.583Z,1000.51
2019-05-02T08:39:52.319Z,1000.48
2019-05-02T08:40:51.356Z,1000.48
2019-05-02T08:41:56.254Z,1000.45
2019-05-02T08:42:50.736Z,1000.49
2019-05-02T08:43:50.375Z,1000.51
2019-05-02T08:44:51.614Z,1000.55
2019-05-02T08:45:50.713Z,1000.49
2019-05-02T08:46:51.354Z,1000.48
2019-05-02T08:47:50.208Z,1000.53
2019-05-02T08:48:50.764Z,1000.52
2019-05-02T08:49:54.898Z,1000.55
2019-05-02T08:50:50.136Z,1000.57
2019-05-02T08:51:50.275Z,1000.56
2019-05-02T08:52:50.380Z,1000.53
2019-05-02T08:53:52.013Z,1000.56
2019-05-02T08:54:50.107Z,1000.58
2019-05-02T08:55:50.073Z,1000.57
2019-05-02T08:56:53.452Z,1000.59
2019-05-02T08:57:50.002Z,1000.53
2019-05-02T08:58:51.114Z,1000.58
2019-05-02T08:59:50.084Z,1000.54
2019-05-02T09:00:49.995Z,1000.59
2019-05-02T09:01:51.375Z,1000.62
2019-05-02T09:02:49.911Z,1000.52
2019-05-02T09:03:55.332Z,1000.58
2019-05-02T09:04:58.183Z,1000.57
2019-05-02T09:06:53.118Z,1000.55
2019-05-02T09:07:49.788Z,1000.54
2019-05-02T09:09:49.868Z,1000.70
2019-05-02T09:10:50.055Z,1000.56
2019-05-02T09:12:03.307Z,1000.53
2019-05-02T09:12:52.091Z,1000.54
2019-05-02T09:13:50.211Z,1000.59
2019-05-02T09:14:49.655Z,1000.59
2019-05-02T09:15:52.009Z,1000.61
2019-05-02T09:16:49.633Z,1000.56
2019-05-02T09:17:53.036Z,1000.66
2019-05-02T09:18:51.812Z,1000.62
2019-05-02T09:20:00.288Z,1000.61
2019-05-02T09:20:52.637Z,1000.62
2019-05-02T09:23:51.710Z,1000.61
2019-05-02T09:24:49.503Z,1000.58
2019-05-02T09:25:49.435Z,1000.62
2019-05-02T09:26:49.475Z,1000.67
2019-05-02T09:27:49.914Z,1000.57
2019-05-02T09:28:51.674Z,1000.61
2019-05-02T09:29:49.373Z,1000.66
2019-05-02T09:30:49.359Z,1000.67
2019-05-02T09:31:49.337Z,1000.60
2019-05-02T09:32:52.219Z,1000.64
2019-05-02T09:33:49.283Z,1000.60
2019-05-02T09:35:49.364Z,1000.58
2019-05-02T09:36:49.501Z,1000.59
2019-05-02T09:37:49.397Z,1000.59
2019-05-02T09:39:49.324Z,1000.56
2019-05-02T09:40:54.590Z,1000.56
2019-05-02T09:41:49.407Z,1000.55
2019-05-02T09:42:53.271Z,1000.54
2019-05-02T09:44:55.396Z,1000.56
2019-05-02T09:45:49.059Z,1000.55
2019-05-02T09:46:53.100Z,1000.55
2019-05-02T09:47:59.707Z,1000.51
2019-05-02T09:48:48.979Z,1000.52
2019-05-02T09:49:50.441Z,1000.48
2019-05-02T09:50:48.928Z,1000.48
2019-05-02T09:52:48.885Z,1000.45
2019-05-02T09:53:48.947Z,1000.47
2019-05-02T09:54:49.182Z,1000.45
2019-05-02T09:55:55.012Z,1000.43
2019-05-02T09:56:52.363Z,1000.45
2019-05-02T09:57:48.783Z,1000.43
2019-05-02T09:58:49.379Z,1000.45
2019-05-02T09:59:50.643Z,1000.51
2019-05-02T10:00:48.806Z,1000.45
2019-05-02T10:01:48.957Z,1000.45
2019-05-02T10:02:48.760Z,1000.53
2019-05-02T10:03:48.699Z,1000.45
2019-05-02T10:04:48.747Z,1000.45
2019-05-02T10:05:48.740Z,1000.44
2019-05-02T10:06:48.778Z,1000.45
2019-05-02T10:07:48.779Z,1000.40
2019-05-02T10:08:49.012Z,1000.38
2019-05-02T10:09:48.560Z,1000.37
2019-05-02T10:10:48.612Z,1000.40
2019-05-02T10:11:48.550Z,1000.38
2019-05-02T10:12:48.508Z,1000.36
2019-05-02T10:13:48.677Z,1000.46
2019-05-02T10:14:48.487Z,1000.41
2019-05-02T10:15:48.927Z,1000.40
2019-05-02T10:18:48.538Z,1000.38
2019-05-02T10:19:49.244Z,1000.38
2019-05-02T10:20:48.361Z,1000.27
2019-05-02T10:22:48.633Z,1000.30
2019-05-02T10:23:51.760Z,1000.32
2019-05-02T10:24:48.269Z,1000.27
2019-05-02T10:25:48.664Z,1000.31
2019-05-02T10:26:48.392Z,1000.26
2019-05-02T10:27:48.215Z,1000.31
2019-05-02T10:28:50.534Z,1000.26
2019-05-02T10:29:48.213Z,1000.27
2019-05-02T10:30:52.750Z,1000.28
2019-05-02T10:31:48.144Z,1000.24
2019-05-02T10:32:55.560Z,1000.31
2019-05-02T10:33:48.150Z,1000.29
2019-05-02T10:34:53.130Z,1000.33
2019-05-02T10:35:48.302Z,1000.34
2019-05-02T10:36:51.943Z,1000.36
2019-05-02T10:37:48.106Z,1000.43
2019-05-02T10:38:48.976Z,1000.30
2019-05-02T10:39:48.094Z,1000.32
2019-05-02T10:40:48.485Z,1000.25
2019-05-02T10:41:48.108Z,1000.37
2019-05-02T10:43:52.022Z,1000.28
2019-05-02T10:44:47.894Z,1000.24
2019-05-02T10:45:52.888Z,1000.24
2019-05-02T10:46:48.291Z,1000.20
2019-05-02T10:47:47.855Z,1000.22
2019-05-02T10:48:47.835Z,1000.21
2019-05-02T10:49:47.961Z,1000.24
2019-05-02T10:50:47.807Z,1000.20
2019-05-02T10:51:51.046Z,1000.24
2019-05-02T10:52:48.132Z,1000.18
2019-05-02T10:53:54.777Z,1000.21
2019-05-02T10:54:53.175Z,1000.24
2019-05-02T11:00:47.617Z,1000.20
2019-05-02T11:01:47.651Z,1000.20
2019-05-02T11:02:47.562Z,1000.24
2019-05-02T11:03:47.663Z,1000.27
2019-05-02T11:04:47.565Z,1000.30
2019-05-02T11:05:47.849Z,1000.14
2019-05-02T11:06:47.784Z,1000.23
2019-05-02T11:07:47.483Z,1000.27
2019-05-02T11:08:47.556Z,1000.34
2019-05-02T11:09:47.753Z,1000.23
2019-05-02T11:10:47.953Z,1000.18
2019-05-02T11:11:47.802Z,1000.20
2019-05-02T11:12:47.665Z,1000.23
2019-05-02T11:13:48.157Z,1000.14
2019-05-02T11:14:47.532Z,1000.13
2019-05-02T11:15:47.420Z,1000.18
2019-05-02T11:16:47.361Z,1000.35
2019-05-02T11:17:48.380Z,1000.18
2019-05-02T11:20:47.316Z,1000.38
2019-05-02T11:21:56.422Z,1000.39
2019-05-02T11:25:47.140Z,1000.29
2019-05-02T11:26:47.519Z,1000.18
2019-05-02T11:28:47.565Z,1000.19
2019-05-02T11:29:47.190Z,1000.19
2019-05-02T11:30:47.405Z,1000.13
2019-05-02T11:31:47.049Z,1000.07
2019-05-02T11:32:47.047Z,1000.09
2019-05-02T11:33:47.277Z,999.96
2019-05-02T11:34:47.010Z,999.86
2019-05-02T11:46:01.533Z,999.76
2019-05-02T11:46:47.173Z,999.89
2019-05-02T11:47:47.002Z,999.90
2019-05-02T11:48:56.357Z,999.77
2019-05-02T11:49:51.297Z,999.81
2019-05-02T11:50:46.763Z,999.72
2019-05-02T11:52:47.055Z,999.73
2019-05-02T11:53:46.711Z,999.76
2019-05-02T11:54:48.433Z,999.75
2019-05-02T11:55:46.698Z,999.73
2019-05-02T11:56:51.335Z,999.67
2019-05-02T11:57:46.712Z,999.70
2019-05-02T11:58:48.405Z,999.71
2019-05-02T12:00:49.663Z,999.76
2019-05-02T12:02:49.136Z,999.77
2019-05-02T12:03:46.650Z,999.69
2019-05-02T12:04:47.395Z,999.69
2019-05-02T12:05:46.544Z,999.63
2019-05-02T12:06:50.071Z,999.61
2019-05-02T12:08:49.420Z,999.65
2019-05-02T12:09:55.452Z,999.69
2019-05-02T12:11:47.434Z,999.62
2019-05-02T12:12:46.431Z,999.54
2019-05-02T12:14:46.442Z,999.57
2019-05-02T12:15:46.419Z,999.42
2019-05-02T12:17:46.324Z,999.47
2019-05-02T12:18:46.344Z,999.38
2019-05-02T12:19:46.309Z,999.36
2019-05-02T12:20:46.388Z,999.36
2019-05-02T12:21:46.267Z,999.30
2019-05-02T12:22:47.096Z,999.36
2019-05-02T12:23:47.932Z,999.38
2019-05-02T12:24:48.560Z,999.38
2019-05-02T12:25:46.269Z,999.35
2019-05-02T12:26:46.618Z,999.36
2019-05-02T12:27:46.256Z,999.43
2019-05-02T12:28:46.486Z,999.43
2019-05-02T12:29:50.159Z,999.61
2019-05-02T12:30:46.140Z,999.67
2019-05-02T12:31:47.179Z,999.79
2019-05-02T12:32:46.457Z,999.84
2019-05-02T12:33:46.129Z,999.99
2019-05-02T12:34:46.179Z,1000.14
2019-05-02T12:36:46.109Z,999.76
2019-05-02T12:37:47.016Z,999.68
2019-05-02T12:39:45.995Z,999.33
2019-05-02T12:40:46.099Z,999.33
2019-05-02T12:41:46.339Z,999.35
2019-05-02T12:42:46.535Z,999.24
2019-05-02T12:43:46.135Z,999.21
2019-05-02T12:44:46.097Z,999.21
2019-05-02T12:46:45.948Z,999.32
2019-05-02T12:47:45.881Z,999.26
2019-05-02T12:48:46.166Z,999.39
2019-05-02T12:49:45.945Z,999.63
2019-05-02T12:50:45.971Z,999.64
2019-05-02T12:51:45.847Z,999.54
2019-05-02T12:52:45.817Z,999.52
2019-05-02T12:53:45.799Z,999.53
2019-05-02T12:54:45.811Z,999.48
2019-05-02T12:55:46.323Z,999.51
2019-05-02T12:56:45.916Z,999.46
2019-05-02T12:58:45.731Z,999.29
2019-05-02T12:59:45.999Z,999.27
2019-05-02T13:01:46.003Z,999.09
2019-05-02T13:02:45.678Z,999.22
2019-05-02T13:03:45.659Z,999.21
2019-05-02T13:04:45.736Z,999.09
2019-05-02T13:06:46.748Z,999.10
2019-05-02T13:07:50.414Z,999.13
2019-05-02T13:08:45.653Z,999.24
2019-05-02T13:09:45.595Z,999.31
2019-05-02T13:11:52.369Z,999.34
2019-05-02T13:12:45.659Z,999.27
2019-05-02T13:15:45.954Z,999.22
2019-05-02T13:16:45.766Z,999.20
2019-05-02T13:17:48.809Z,999.23
2019-05-02T13:18:46.805Z,999.28
2019-05-02T13:20:45.659Z,999.25
2019-05-02T13:21:50.244Z,999.22
2019-05-02T13:22:45.792Z,999.18
2019-05-02T13:23:46.780Z,999.19
2019-05-02T13:25:45.405Z,999.06
2019-05-02T13:26:45.332Z,999.01
2019-05-02T13:27:48.113Z,998.97
2019-05-02T13:28:46.226Z,998.91
2019-05-02T13:29:45.612Z,998.89
2019-05-02T13:30:46.689Z,998.82
2019-05-02T13:31:45.268Z,998.81
2019-05-02T13:32:48.198Z,998.90
2019-05-02T13:33:45.254Z,998.77
2019-05-02T13:35:46.307Z,998.79
2019-05-02T13:36:45.444Z,998.76
2019-05-02T13:37:46.002Z,998.79
2019-05-02T13:38:45.168Z,998.85
2019-05-02T13:39:45.544Z,998.78
2019-05-02T13:41:45.138Z,998.70
2019-05-02T13:42:45.859Z,998.74
2019-05-02T13:43:45.316Z,998.76
2019-05-02T13:44:46.051Z,998.76
2019-05-02T13:46:46.487Z,998.72
2019-05-02T13:49:54.107Z,998.73
2019-05-02T13:50:45.370Z,998.73